sensor_id;sensor_type;location;lat;lon;timestamp;pressure;altitude;pressure_sealevel;temperature;humidity
6032;BME280;3044;43.232;27.972;2023-09-18T00:00:10;45113.81;;;-143.84;73.06
6032;BME280;3044;43.232;27.972;2023-09-18T00:02:39;45081.44;;;-143.84;72.77
6032;BME280;3044;43.232;27.972;2023-09-18T00:05:06;45119.53;;;-143.84;72.65
6032;BME280;3044;43.232;27.972;2023-09-18T00:07:35;45113.81;;;-143.84;72.39
6032;BME280;3044;43.232;27.972;2023-09-18T00:10:02;45090.97;;;-143.84;72.49
6032;BME280;3044;43.232;27.972;2023-09-18T00:12:29;45127.13;;;-143.84;72.47
6032;BME280;3044;43.232;27.972;2023-09-18T00:14:56;45106.19;;;-143.84;72.27
6032;BME280;3044;43.232;27.972;2023-09-18T00:17:23;45087.16;;;-143.84;72.07
6032;BME280;3044;43.232;27.972;2023-09-18T00:19:51;45085.25;;;-143.84;71.68
6032;BME280;3044;43.232;27.972;2023-09-18T00:22:19;45096.66;;;-143.84;71.37
6032;BME280;3044;43.232;27.972;2023-09-18T00:24:48;45089.06;;;-143.84;71.26
6032;BME280;3044;43.232;27.972;2023-09-18T00:27:15;45090.97;;;-143.84;71.14
6032;BME280;3044;43.232;27.972;2023-09-18T00:29:42;45134.75;;;-143.84;71.05
6032;BME280;3044;43.232;27.972;2023-09-18T00:32:09;45117.63;;;-143.84;70.92
6032;BME280;3044;43.232;27.972;2023-09-18T00:34:37;45085.25;;;-143.84;71.17
6032;BME280;3044;43.232;27.972;2023-09-18T00:37:04;45089.06;;;-143.84;71.15
6032;BME280;3044;43.232;27.972;2023-09-18T00:39:31;45098.56;;;-143.84;71.05
6032;BME280;3044;43.232;27.972;2023-09-18T00:41:59;45090.97;;;-143.84;70.93
6032;BME280;3044;43.232;27.972;2023-09-18T00:44:26;45110.00;;;-143.84;70.68
6032;BME280;3044;43.232;27.972;2023-09-18T00:46:53;45119.53;;;-143.84;70.35
6032;BME280;3044;43.232;27.972;2023-09-18T00:49:22;45108.09;;;-143.84;70.36
6032;BME280;3044;43.232;27.972;2023-09-18T00:51:50;45117.63;;;-143.84;69.72
6032;BME280;3044;43.232;27.972;2023-09-18T00:54:18;45089.06;;;-143.84;69.68
6032;BME280;3044;43.232;27.972;2023-09-18T00:56:46;45104.28;;;-143.84;69.32
6032;BME280;3044;43.232;27.972;2023-09-18T00:59:21;45108.09;;;-143.84;69.26
6032;BME280;3044;43.232;27.972;2023-09-18T01:01:48;45102.38;;;-143.84;68.95
6032;BME280;3044;43.232;27.972;2023-09-18T01:04:17;45123.34;;;-143.84;69.36
6032;BME280;3044;43.232;27.972;2023-09-18T01:06:44;45121.44;;;-143.84;69.40
6032;BME280;3044;43.232;27.972;2023-09-18T01:09:12;45110.00;;;-143.84;69.23
6032;BME280;3044;43.232;27.972;2023-09-18T01:11:47;45117.63;;;-143.84;68.92
6032;BME280;3044;43.232;27.972;2023-09-18T01:14:23;45098.56;;;-143.84;69.35
6032;BME280;3044;43.232;27.972;2023-09-18T01:16:56;45066.22;;;-143.84;69.35
6032;BME280;3044;43.232;27.972;2023-09-18T01:19:40;45102.38;;;-143.84;69.45
6032;BME280;3044;43.232;27.972;2023-09-18T01:22:09;45104.28;;;-143.84;69.66
6032;BME280;3044;43.232;27.972;2023-09-18T01:24:39;45098.56;;;-143.84;69.75
6032;BME280;3044;43.232;27.972;2023-09-18T01:27:08;45106.19;;;-143.84;69.89
6032;BME280;3044;43.232;27.972;2023-09-18T01:29:36;45090.97;;;-143.84;69.89
6032;BME280;3044;43.232;27.972;2023-09-18T01:32:03;45119.53;;;-143.84;69.92
6032;BME280;3044;43.232;27.972;2023-09-18T01:34:33;45085.25;;;-143.84;69.77
6032;BME280;3044;43.232;27.972;2023-09-18T01:37:03;45104.28;;;-143.84;69.75
6032;BME280;3044;43.232;27.972;2023-09-18T01:39:31;45110.00;;;-143.84;69.87
6032;BME280;3044;43.232;27.972;2023-09-18T01:42:03;45132.84;;;-143.84;69.77
6032;BME280;3044;43.232;27.972;2023-09-18T01:44:30;45104.28;;;-143.84;70.17
6032;BME280;3044;43.232;27.972;2023-09-18T01:46:59;45108.09;;;-143.84;70.26
6032;BME280;3044;43.232;27.972;2023-09-18T01:49:27;45104.28;;;-143.84;70.30
6032;BME280;3044;43.232;27.972;2023-09-18T01:51:55;45111.91;;;-143.84;70.03
6032;BME280;3044;43.232;27.972;2023-09-18T01:54:22;45096.66;;;-143.84;69.99
6032;BME280;3044;43.232;27.972;2023-09-18T01:56:50;45098.56;;;-143.84;70.06
6032;BME280;3044;43.232;27.972;2023-09-18T01:59:19;45094.78;;;-143.84;69.79
6032;BME280;3044;43.232;27.972;2023-09-18T02:01:46;45098.56;;;-143.84;69.78
6032;BME280;3044;43.232;27.972;2023-09-18T02:04:13;45123.34;;;-143.84;69.71
6032;BME280;3044;43.232;27.972;2023-09-18T02:06:40;45123.34;;;-143.84;69.82
6032;BME280;3044;43.232;27.972;2023-09-18T02:09:07;45108.09;;;-143.84;69.67
6032;BME280;3044;43.232;27.972;2023-09-18T02:11:36;45110.00;;;-143.84;69.89
6032;BME280;3044;43.232;27.972;2023-09-18T02:14:03;45096.66;;;-143.84;69.76
6032;BME280;3044;43.232;27.972;2023-09-18T02:16:32;45100.47;;;-143.84;69.74
6032;BME280;3044;43.232;27.972;2023-09-18T02:18:59;45113.81;;;-143.84;69.83
6032;BME280;3044;43.232;27.972;2023-09-18T02:21:27;45119.53;;;-143.84;69.94
6032;BME280;3044;43.232;27.972;2023-09-18T02:23:54;45117.63;;;-143.84;69.87
6032;BME280;3044;43.232;27.972;2023-09-18T02:26:22;45108.09;;;-143.84;69.97
6032;BME280;3044;43.232;27.972;2023-09-18T02:28:51;45108.09;;;-143.84;70.08
6032;BME280;3044;43.232;27.972;2023-09-18T02:31:19;45104.28;;;-143.84;69.86
6032;BME280;3044;43.232;27.972;2023-09-18T02:33:47;45094.78;;;-143.84;69.92
6032;BME280;3044;43.232;27.972;2023-09-18T02:36:14;45094.78;;;-143.84;69.69
6032;BME280;3044;43.232;27.972;2023-09-18T02:38:42;45117.63;;;-143.84;69.62
6032;BME280;3044;43.232;27.972;2023-09-18T02:41:09;45115.72;;;-143.84;69.63
6032;BME280;3044;43.232;27.972;2023-09-18T02:43:37;45104.28;;;-143.84;69.58
6032;BME280;3044;43.232;27.972;2023-09-18T02:46:04;45098.56;;;-143.84;69.38
6032;BME280;3044;43.232;27.972;2023-09-18T02:48:32;45113.81;;;-143.84;69.00
6032;BME280;3044;43.232;27.972;2023-09-18T02:51:00;45077.63;;;-143.84;68.87
6032;BME280;3044;43.232;27.972;2023-09-18T02:53:28;45110.00;;;-143.84;69.00
6032;BME280;3044;43.232;27.972;2023-09-18T02:55:58;45090.97;;;-143.84;69.19
6032;BME280;3044;43.232;27.972;2023-09-18T02:58:26;45113.81;;;-143.84;69.69
6032;BME280;3044;43.232;27.972;2023-09-18T03:00:55;45100.47;;;-143.84;70.16
6032;BME280;3044;43.232;27.972;2023-09-18T03:03:23;45108.09;;;-143.84;70.49
6032;BME280;3044;43.232;27.972;2023-09-18T03:05:50;45085.25;;;-143.84;70.66
6032;BME280;3044;43.232;27.972;2023-09-18T03:08:18;45108.09;;;-143.84;71.11
6032;BME280;3044;43.232;27.972;2023-09-18T03:10:46;45111.91;;;-143.84;71.28
6032;BME280;3044;43.232;27.972;2023-09-18T03:13:14;45102.38;;;-143.84;71.33
6032;BME280;3044;43.232;27.972;2023-09-18T03:15:45;45115.72;;;-143.84;71.26
6032;BME280;3044;43.232;27.972;2023-09-18T03:18:13;45125.22;;;-143.84;71.54
6032;BME280;3044;43.232;27.972;2023-09-18T03:20:41;45104.28;;;-143.84;71.66
6032;BME280;3044;43.232;27.972;2023-09-18T03:23:08;45125.22;;;-143.84;72.10
6032;BME280;3044;43.232;27.972;2023-09-18T03:25:37;45123.34;;;-143.84;72.93
6032;BME280;3044;43.232;27.972;2023-09-18T03:28:04;45140.47;;;-143.84;72.85
6032;BME280;3044;43.232;27.972;2023-09-18T03:30:31;45102.38;;;-143.84;73.47
6032;BME280;3044;43.232;27.972;2023-09-18T03:32:59;45115.72;;;-143.84;73.45
6032;BME280;3044;43.232;27.972;2023-09-18T03:35:28;45096.66;;;-143.84;73.39
6032;BME280;3044;43.232;27.972;2023-09-18T03:37:56;45115.72;;;-143.84;73.67
6032;BME280;3044;43.232;27.972;2023-09-18T03:40:23;45094.78;;;-143.84;73.99
6032;BME280;3044;43.232;27.972;2023-09-18T03:42:51;45136.66;;;-143.84;74.09
6032;BME280;3044;43.232;27.972;2023-09-18T03:45:19;45140.47;;;-143.84;74.47
6032;BME280;3044;43.232;27.972;2023-09-18T03:47:46;45111.91;;;-143.84;74.46
6032;BME280;3044;43.232;27.972;2023-09-18T03:50:15;45113.81;;;-143.84;74.21
6032;BME280;3044;43.232;27.972;2023-09-18T03:52:42;45121.44;;;-143.84;74.50
6032;BME280;3044;43.232;27.972;2023-09-18T03:55:10;45121.44;;;-143.84;74.53
6032;BME280;3044;43.232;27.972;2023-09-18T03:57:38;45130.94;;;-143.84;74.93
6032;BME280;3044;43.232;27.972;2023-09-18T04:00:07;45106.19;;;-143.84;75.09
6032;BME280;3044;43.232;27.972;2023-09-18T04:02:35;45108.09;;;-143.84;75.04
6032;BME280;3044;43.232;27.972;2023-09-18T04:05:02;45117.63;;;-143.84;75.13
6032;BME280;3044;43.232;27.972;2023-09-18T04:07:30;45136.66;;;-143.84;75.39
6032;BME280;3044;43.232;27.972;2023-09-18T04:09:57;45092.88;;;-143.84;75.53
6032;BME280;3044;43.232;27.972;2023-09-18T04:12:25;45108.09;;;-143.84;75.67
6032;BME280;3044;43.232;27.972;2023-09-18T04:14:52;45098.56;;;-143.84;75.61
6032;BME280;3044;43.232;27.972;2023-09-18T04:17:21;45127.13;;;-143.84;75.52
6032;BME280;3044;43.232;27.972;2023-09-18T04:19:48;45129.03;;;-143.84;75.21
6032;BME280;3044;43.232;27.972;2023-09-18T04:22:15;45092.88;;;-143.84;75.33
6032;BME280;3044;43.232;27.972;2023-09-18T04:24:42;45098.56;;;-143.84;75.15
6032;BME280;3044;43.232;27.972;2023-09-18T04:27:09;45113.81;;;-143.84;75.32
6032;BME280;3044;43.232;27.972;2023-09-18T04:29:36;45106.19;;;-143.84;75.11
6032;BME280;3044;43.232;27.972;2023-09-18T04:32:04;45113.81;;;-143.84;75.31
6032;BME280;3044;43.232;27.972;2023-09-18T04:34:32;45117.63;;;-143.84;75.57
6032;BME280;3044;43.232;27.972;2023-09-18T04:37:00;45129.03;;;-143.84;75.89
6032;BME280;3044;43.232;27.972;2023-09-18T04:39:29;45121.44;;;-143.84;75.89
6032;BME280;3044;43.232;27.972;2023-09-18T04:42:01;45117.63;;;-143.84;76.66
6032;BME280;3044;43.232;27.972;2023-09-18T04:44:30;45134.75;;;-143.84;77.25
6032;BME280;3044;43.232;27.972;2023-09-18T04:46:57;45106.19;;;-143.84;77.94
6032;BME280;3044;43.232;27.972;2023-09-18T04:49:25;45119.53;;;-143.84;77.99
6032;BME280;3044;43.232;27.972;2023-09-18T04:51:55;45132.84;;;-143.84;76.97
6032;BME280;3044;43.232;27.972;2023-09-18T04:54:22;45092.88;;;-143.84;75.41
6032;BME280;3044;43.232;27.972;2023-09-18T04:56:49;45089.06;;;-143.84;73.78
6032;BME280;3044;43.232;27.972;2023-09-18T04:59:16;45083.34;;;-143.84;71.34
6032;BME280;3044;43.232;27.972;2023-09-18T05:01:43;45071.91;;;-143.84;70.06
6032;BME280;3044;43.232;27.972;2023-09-18T05:04:10;45079.53;;;-143.84;67.81
6032;BME280;3044;43.232;27.972;2023-09-18T05:06:38;45098.56;;;-143.84;66.36
6032;BME280;3044;43.232;27.972;2023-09-18T05:09:09;45089.06;;;-143.84;65.41
6032;BME280;3044;43.232;27.972;2023-09-18T05:11:36;45092.88;;;-143.84;63.83
6032;BME280;3044;43.232;27.972;2023-09-18T05:14:03;45079.53;;;-143.84;62.16
6032;BME280;3044;43.232;27.972;2023-09-18T05:16:31;45106.19;;;-143.84;61.87
6032;BME280;3044;43.232;27.972;2023-09-18T05:18:58;45056.69;;;-143.84;59.58
6032;BME280;3044;43.232;27.972;2023-09-18T05:21:26;45050.97;;;-143.84;59.03
6032;BME280;3044;43.232;27.972;2023-09-18T05:23:53;45073.81;;;-143.84;56.85
6032;BME280;3044;43.232;27.972;2023-09-18T05:26:21;45073.81;;;-143.84;54.69
6032;BME280;3044;43.232;27.972;2023-09-18T05:28:50;45041.44;;;-143.84;53.88
6032;BME280;3044;43.232;27.972;2023-09-18T05:31:19;45056.69;;;-143.84;52.87
6032;BME280;3044;43.232;27.972;2023-09-18T05:33:46;45033.84;;;-143.84;51.27
6032;BME280;3044;43.232;27.972;2023-09-18T05:36:13;45049.06;;;-143.84;50.95
6032;BME280;3044;43.232;27.972;2023-09-18T05:38:41;45054.78;;;-143.84;50.19
6032;BME280;3044;43.232;27.972;2023-09-18T05:41:08;45018.59;;;-143.84;48.88
6032;BME280;3044;43.232;27.972;2023-09-18T05:43:37;45033.84;;;-143.84;48.46
6032;BME280;3044;43.232;27.972;2023-09-18T05:46:05;45030.03;;;-143.84;46.94
6032;BME280;3044;43.232;27.972;2023-09-18T05:48:32;45049.06;;;-143.84;46.38
6032;BME280;3044;43.232;27.972;2023-09-18T05:50:59;45037.66;;;-143.84;45.93
6032;BME280;3044;43.232;27.972;2023-09-18T05:53:26;45037.66;;;-143.84;46.06
6032;BME280;3044;43.232;27.972;2023-09-18T05:55:53;45047.16;;;-143.84;46.35
6032;BME280;3044;43.232;27.972;2023-09-18T05:58:22;45047.16;;;-143.84;45.42
6032;BME280;3044;43.232;27.972;2023-09-18T06:00:52;45030.03;;;-143.84;44.61
6032;BME280;3044;43.232;27.972;2023-09-18T06:03:19;45022.41;;;-143.84;44.50
6032;BME280;3044;43.232;27.972;2023-09-18T06:05:47;45033.84;;;-143.84;44.75
6032;BME280;3044;43.232;27.972;2023-09-18T06:08:14;45014.78;;;-143.84;45.07
6032;BME280;3044;43.232;27.972;2023-09-18T06:10:41;45035.75;;;-143.84;45.28
6032;BME280;3044;43.232;27.972;2023-09-18T06:13:08;45010.97;;;-143.84;45.29
6032;BME280;3044;43.232;27.972;2023-09-18T06:15:36;45037.66;;;-143.84;44.71
6032;BME280;3044;43.232;27.972;2023-09-18T06:18:05;45024.31;;;-143.84;44.20
6032;BME280;3044;43.232;27.972;2023-09-18T06:20:33;45016.69;;;-143.84;43.16
6032;BME280;3044;43.232;27.972;2023-09-18T06:23:00;45028.13;;;-143.84;43.26
6032;BME280;3044;43.232;27.972;2023-09-18T06:25:29;44984.31;;;-143.84;43.13
6032;BME280;3044;43.232;27.972;2023-09-18T06:27:57;45003.38;;;-143.84;42.99
6032;BME280;3044;43.232;27.972;2023-09-18T06:30:26;45020.50;;;-143.84;42.33
6032;BME280;3044;43.232;27.972;2023-09-18T06:32:53;44997.66;;;-143.84;42.22
6032;BME280;3044;43.232;27.972;2023-09-18T06:35:21;44995.75;;;-143.84;41.83
6032;BME280;3044;43.232;27.972;2023-09-18T06:37:48;44969.09;;;-143.84;41.18
6032;BME280;3044;43.232;27.972;2023-09-18T06:40:16;44991.94;;;-143.84;40.57
6032;BME280;3044;43.232;27.972;2023-09-18T06:42:43;44982.41;;;-143.84;40.41
6032;BME280;3044;43.232;27.972;2023-09-18T06:45:10;44980.53;;;-143.84;40.12
6032;BME280;3044;43.232;27.972;2023-09-18T06:47:38;44997.66;;;-143.84;39.60
6032;BME280;3044;43.232;27.972;2023-09-18T06:50:06;44967.19;;;-143.84;39.10
6032;BME280;3044;43.232;27.972;2023-09-18T06:52:36;44991.94;;;-143.84;38.95
6032;BME280;3044;43.232;27.972;2023-09-18T06:55:03;44999.56;;;-143.84;37.87
6032;BME280;3044;43.232;27.972;2023-09-18T06:57:31;44974.81;;;-143.84;38.18
6032;BME280;3044;43.232;27.972;2023-09-18T06:59:59;44988.13;;;-143.84;37.80
6032;BME280;3044;43.232;27.972;2023-09-18T07:02:26;44988.13;;;-143.84;37.28
6032;BME280;3044;43.232;27.972;2023-09-18T07:04:54;44978.63;;;-143.84;37.67
6032;BME280;3044;43.232;27.972;2023-09-18T07:07:21;44986.22;;;-143.84;37.79
6032;BME280;3044;43.232;27.972;2023-09-18T07:09:52;44978.63;;;-143.84;37.19
6032;BME280;3044;43.232;27.972;2023-09-18T07:12:19;44995.75;;;-143.84;36.85
6032;BME280;3044;43.232;27.972;2023-09-18T07:14:46;44959.56;;;-143.84;37.07
6032;BME280;3044;43.232;27.972;2023-09-18T07:17:13;44967.19;;;-143.84;36.97
6032;BME280;3044;43.232;27.972;2023-09-18T07:19:41;44971.00;;;-143.84;36.40
6032;BME280;3044;43.232;27.972;2023-09-18T07:22:08;44955.75;;;-143.84;36.11
6032;BME280;3044;43.232;27.972;2023-09-18T07:24:35;44995.75;;;-143.84;36.10
6032;BME280;3044;43.232;27.972;2023-09-18T07:27:07;44986.22;;;-143.84;36.35
6032;BME280;3044;43.232;27.972;2023-09-18T07:29:34;44993.84;;;-143.84;36.02
6032;BME280;3044;43.232;27.972;2023-09-18T07:32:02;44984.31;;;-143.84;36.31
6032;BME280;3044;43.232;27.972;2023-09-18T07:34:29;44971.00;;;-143.84;36.90
6032;BME280;3044;43.232;27.972;2023-09-18T07:36:56;44969.09;;;-143.84;35.44
6032;BME280;3044;43.232;27.972;2023-09-18T07:39:23;44946.25;;;-143.84;35.18
6032;BME280;3044;43.232;27.972;2023-09-18T07:41:50;44969.09;;;-143.84;35.79
6032;BME280;3044;43.232;27.972;2023-09-18T07:44:21;44980.53;;;-143.84;35.82
6032;BME280;3044;43.232;27.972;2023-09-18T07:46:48;44984.31;;;-143.84;36.29
6032;BME280;3044;43.232;27.972;2023-09-18T07:49:15;44980.53;;;-143.84;35.93
6032;BME280;3044;43.232;27.972;2023-09-18T07:51:43;44980.53;;;-143.84;37.09
6032;BME280;3044;43.232;27.972;2023-09-18T07:54:14;44995.75;;;-143.84;36.78
6032;BME280;3044;43.232;27.972;2023-09-18T07:56:41;44988.13;;;-143.84;37.44
6032;BME280;3044;43.232;27.972;2023-09-18T07:59:09;44969.09;;;-143.84;37.28
6032;BME280;3044;43.232;27.972;2023-09-18T08:01:37;44965.28;;;-143.84;37.16
6032;BME280;3044;43.232;27.972;2023-09-18T08:04:04;44972.91;;;-143.84;37.76
6032;BME280;3044;43.232;27.972;2023-09-18T08:06:32;44971.00;;;-143.84;37.97
6032;BME280;3044;43.232;27.972;2023-09-18T08:09:00;44969.09;;;-143.84;38.22
6032;BME280;3044;43.232;27.972;2023-09-18T08:11:27;44953.88;;;-143.84;38.04
6032;BME280;3044;43.232;27.972;2023-09-18T08:13:54;44980.53;;;-143.84;36.77
6032;BME280;3044;43.232;27.972;2023-09-18T08:16:21;44959.56;;;-143.84;36.44
6032;BME280;3044;43.232;27.972;2023-09-18T08:18:50;44969.09;;;-143.84;36.21
6032;BME280;3044;43.232;27.972;2023-09-18T08:21:18;44967.19;;;-143.84;35.27
6032;BME280;3044;43.232;27.972;2023-09-18T08:23:45;44957.66;;;-143.84;36.11
6032;BME280;3044;43.232;27.972;2023-09-18T08:26:12;44969.09;;;-143.84;36.67
6032;BME280;3044;43.232;27.972;2023-09-18T08:28:39;44980.53;;;-143.84;36.79
6032;BME280;3044;43.232;27.972;2023-09-18T08:31:09;44944.34;;;-143.84;36.73
6032;BME280;3044;43.232;27.972;2023-09-18T08:33:36;44976.72;;;-143.84;37.14
6032;BME280;3044;43.232;27.972;2023-09-18T08:36:05;44934.81;;;-143.84;37.41
6032;BME280;3044;43.232;27.972;2023-09-18T08:38:32;44963.38;;;-143.84;36.80
6032;BME280;3044;43.232;27.972;2023-09-18T08:40:59;44980.53;;;-143.84;36.98
6032;BME280;3044;43.232;27.972;2023-09-18T08:43:26;44950.06;;;-143.84;37.05
6032;BME280;3044;43.232;27.972;2023-09-18T08:45:55;44925.31;;;-143.84;37.25
6032;BME280;3044;43.232;27.972;2023-09-18T08:48:28;44976.72;;;-143.84;37.23
6032;BME280;3044;43.232;27.972;2023-09-18T08:51:01;44972.91;;;-143.84;37.47
6032;BME280;3044;43.232;27.972;2023-09-18T08:53:30;44951.97;;;-143.84;37.75
6032;BME280;3044;43.232;27.972;2023-09-18T08:55:59;45003.38;;;-143.84;37.81
6032;BME280;3044;43.232;27.972;2023-09-18T08:58:28;44953.88;;;-143.84;37.94
6032;BME280;3044;43.232;27.972;2023-09-18T09:00:59;44961.47;;;-143.84;37.47
6032;BME280;3044;43.232;27.972;2023-09-18T09:03:29;44940.53;;;-143.84;37.48
6032;BME280;3044;43.232;27.972;2023-09-18T09:05:56;44967.19;;;-143.84;36.93
6032;BME280;3044;43.232;27.972;2023-09-18T09:08:27;44942.44;;;-143.84;36.74
6032;BME280;3044;43.232;27.972;2023-09-18T09:10:56;44950.06;;;-143.84;36.41
6032;BME280;3044;43.232;27.972;2023-09-18T09:13:24;44961.47;;;-143.84;36.40
6032;BME280;3044;43.232;27.972;2023-09-18T09:15:53;44938.63;;;-143.84;36.51
6032;BME280;3044;43.232;27.972;2023-09-18T09:18:21;44944.34;;;-143.84;36.41
6032;BME280;3044;43.232;27.972;2023-09-18T09:20:56;44967.19;;;-143.84;36.43
6032;BME280;3044;43.232;27.972;2023-09-18T09:23:25;44923.41;;;-143.84;36.43
6032;BME280;3044;43.232;27.972;2023-09-18T09:25:53;44932.91;;;-143.84;36.99
6032;BME280;3044;43.232;27.972;2023-09-18T09:28:30;44948.16;;;-143.84;37.51
6032;BME280;3044;43.232;27.972;2023-09-18T09:31:01;44948.16;;;-143.84;36.61
6032;BME280;3044;43.232;27.972;2023-09-18T09:33:29;44946.25;;;-143.84;36.42
6032;BME280;3044;43.232;27.972;2023-09-18T09:35:56;44957.66;;;-143.84;36.76
6032;BME280;3044;43.232;27.972;2023-09-18T09:38:29;44959.56;;;-143.84;37.55
6032;BME280;3044;43.232;27.972;2023-09-18T09:40:58;44959.56;;;-143.84;36.63
6032;BME280;3044;43.232;27.972;2023-09-18T09:43:26;44959.56;;;-143.84;37.00
6032;BME280;3044;43.232;27.972;2023-09-18T09:45:58;44993.84;;;-143.84;36.76
6032;BME280;3044;43.232;27.972;2023-09-18T09:48:26;44974.81;;;-143.84;37.34
6032;BME280;3044;43.232;27.972;2023-09-18T09:50:59;44988.13;;;-143.84;37.37
6032;BME280;3044;43.232;27.972;2023-09-18T09:53:43;44969.09;;;-143.84;37.20
6032;BME280;3044;43.232;27.972;2023-09-18T09:56:12;44972.91;;;-143.84;38.33
6032;BME280;3044;43.232;27.972;2023-09-18T09:58:40;44950.06;;;-143.84;37.15
6032;BME280;3044;43.232;27.972;2023-09-18T10:01:12;44934.81;;;-143.84;35.62
6032;BME280;3044;43.232;27.972;2023-09-18T10:03:44;44984.31;;;-143.84;35.67
6032;BME280;3044;43.232;27.972;2023-09-18T10:06:12;44984.31;;;-143.84;36.54
6032;BME280;3044;43.232;27.972;2023-09-18T10:08:40;44946.25;;;-143.84;35.47
6032;BME280;3044;43.232;27.972;2023-09-18T10:11:08;44969.09;;;-143.84;35.53
6032;BME280;3044;43.232;27.972;2023-09-18T10:13:41;44991.94;;;-143.84;35.19
6032;BME280;3044;43.232;27.972;2023-09-18T10:16:13;44969.09;;;-143.84;35.25
6032;BME280;3044;43.232;27.972;2023-09-18T10:18:52;44984.31;;;-143.84;35.02
6032;BME280;3044;43.232;27.972;2023-09-18T10:21:26;44971.00;;;-143.84;35.48
6032;BME280;3044;43.232;27.972;2023-09-18T10:24:02;44993.84;;;-143.84;34.99
6032;BME280;3044;43.232;27.972;2023-09-18T10:26:35;44972.91;;;-143.84;35.50
6032;BME280;3044;43.232;27.972;2023-09-18T10:29:06;44911.97;;;-143.84;35.43
6032;BME280;3044;43.232;27.972;2023-09-18T10:31:38;44965.28;;;-143.84;36.07
6032;BME280;3044;43.232;27.972;2023-09-18T10:34:08;44974.81;;;-143.84;36.22
6032;BME280;3044;43.232;27.972;2023-09-18T10:36:36;44982.41;;;-143.84;35.78
6032;BME280;3044;43.232;27.972;2023-09-18T10:39:05;44972.91;;;-143.84;35.82
6032;BME280;3044;43.232;27.972;2023-09-18T10:41:34;44972.91;;;-143.84;36.24
6032;BME280;3044;43.232;27.972;2023-09-18T10:44:04;44976.72;;;-143.84;35.92
6032;BME280;3044;43.232;27.972;2023-09-18T10:46:31;44944.34;;;-143.84;36.10
6032;BME280;3044;43.232;27.972;2023-09-18T10:49:00;44988.13;;;-143.84;36.56
6032;BME280;3044;43.232;27.972;2023-09-18T10:51:29;44955.75;;;-143.84;36.27
6032;BME280;3044;43.232;27.972;2023-09-18T10:53:59;44942.44;;;-143.84;36.78
6032;BME280;3044;43.232;27.972;2023-09-18T10:56:26;44971.00;;;-143.84;37.28
6032;BME280;3044;43.232;27.972;2023-09-18T10:58:58;44959.56;;;-143.84;37.30
6032;BME280;3044;43.232;27.972;2023-09-18T11:01:27;44991.94;;;-143.84;37.48
6032;BME280;3044;43.232;27.972;2023-09-18T11:03:57;44967.19;;;-143.84;37.56
6032;BME280;3044;43.232;27.972;2023-09-18T11:06:28;44957.66;;;-143.84;38.45
6032;BME280;3044;43.232;27.972;2023-09-18T11:09:00;44972.91;;;-143.84;38.15
6032;BME280;3044;43.232;27.972;2023-09-18T11:11:30;44999.56;;;-143.84;38.04
6032;BME280;3044;43.232;27.972;2023-09-18T11:13:59;44993.84;;;-143.84;38.39
6032;BME280;3044;43.232;27.972;2023-09-18T11:16:34;44978.63;;;-143.84;38.62
6032;BME280;3044;43.232;27.972;2023-09-18T11:19:08;45007.19;;;-143.84;38.61
6032;BME280;3044;43.232;27.972;2023-09-18T11:21:38;44967.19;;;-143.84;38.08
6032;BME280;3044;43.232;27.972;2023-09-18T11:24:06;44969.09;;;-143.84;38.31
6032;BME280;3044;43.232;27.972;2023-09-18T11:26:37;44982.41;;;-143.84;38.76
6032;BME280;3044;43.232;27.972;2023-09-18T11:29:07;44980.53;;;-143.84;39.00
6032;BME280;3044;43.232;27.972;2023-09-18T11:31:43;44999.56;;;-143.84;39.19
6032;BME280;3044;43.232;27.972;2023-09-18T11:34:12;44986.22;;;-143.84;39.92
6032;BME280;3044;43.232;27.972;2023-09-18T11:36:41;44976.72;;;-143.84;40.23
6032;BME280;3044;43.232;27.972;2023-09-18T11:39:08;44993.84;;;-143.84;39.84
6032;BME280;3044;43.232;27.972;2023-09-18T11:41:37;44999.56;;;-143.84;40.12
6032;BME280;3044;43.232;27.972;2023-09-18T11:44:33;44978.63;;;-143.84;39.96
6032;BME280;3044;43.232;27.972;2023-09-18T11:47:03;44967.19;;;-143.84;40.03
6032;BME280;3044;43.232;27.972;2023-09-18T11:49:33;45010.97;;;-143.84;40.47
6032;BME280;3044;43.232;27.972;2023-09-18T11:52:04;44990.03;;;-143.84;40.33
6032;BME280;3044;43.232;27.972;2023-09-18T11:54:32;44971.00;;;-143.84;39.94
6032;BME280;3044;43.232;27.972;2023-09-18T11:57:03;45003.38;;;-143.84;40.55
6032;BME280;3044;43.232;27.972;2023-09-18T11:59:39;45007.19;;;-143.84;40.83
6032;BME280;3044;43.232;27.972;2023-09-18T12:02:06;44999.56;;;-143.84;40.57
6032;BME280;3044;43.232;27.972;2023-09-18T12:04:34;44974.81;;;-143.84;40.71
6032;BME280;3044;43.232;27.972;2023-09-18T12:07:03;45022.41;;;-143.84;40.91
6032;BME280;3044;43.232;27.972;2023-09-18T12:09:31;45052.88;;;-143.84;41.19
6032;BME280;3044;43.232;27.972;2023-09-18T12:11:59;45012.88;;;-143.84;40.85
6032;BME280;3044;43.232;27.972;2023-09-18T12:14:30;45012.88;;;-143.84;41.84
6032;BME280;3044;43.232;27.972;2023-09-18T12:16:59;44999.56;;;-143.84;41.54
6032;BME280;3044;43.232;27.972;2023-09-18T12:19:28;44976.72;;;-143.84;41.30
6032;BME280;3044;43.232;27.972;2023-09-18T12:21:55;45014.78;;;-143.84;41.19
6032;BME280;3044;43.232;27.972;2023-09-18T12:24:25;44984.31;;;-143.84;40.81
6032;BME280;3044;43.232;27.972;2023-09-18T12:26:53;45007.19;;;-143.84;40.89
6032;BME280;3044;43.232;27.972;2023-09-18T12:29:21;45014.78;;;-143.84;41.01
6032;BME280;3044;43.232;27.972;2023-09-18T12:31:48;44972.91;;;-143.84;41.50
6032;BME280;3044;43.232;27.972;2023-09-18T12:34:18;45003.38;;;-143.84;40.39
6032;BME280;3044;43.232;27.972;2023-09-18T12:36:47;44991.94;;;-143.84;40.88
6032;BME280;3044;43.232;27.972;2023-09-18T12:39:15;45005.28;;;-143.84;39.61
6032;BME280;3044;43.232;27.972;2023-09-18T12:41:45;45024.31;;;-143.84;40.29
6032;BME280;3044;43.232;27.972;2023-09-18T12:44:14;45003.38;;;-143.84;39.30
6032;BME280;3044;43.232;27.972;2023-09-18T12:46:42;45014.78;;;-143.84;39.63
6032;BME280;3044;43.232;27.972;2023-09-18T12:49:17;45005.28;;;-143.84;40.09
6032;BME280;3044;43.232;27.972;2023-09-18T12:51:55;45009.09;;;-143.84;40.42
6032;BME280;3044;43.232;27.972;2023-09-18T12:54:36;45022.41;;;-143.84;40.90
6032;BME280;3044;43.232;27.972;2023-09-18T12:57:06;44995.75;;;-143.84;40.57